createdAt,value
2023-08-15T00:01:13.541Z,18.81
2023-08-15T00:06:20.089Z,18.80
2023-08-15T00:11:24.274Z,18.72
2023-08-15T00:16:28.384Z,18.69
2023-08-15T00:21:34.258Z,18.58
2023-08-15T00:26:38.551Z,18.54
2023-08-15T00:31:42.655Z,18.47
2023-08-15T00:36:48.147Z,18.40
2023-08-15T00:41:52.190Z,18.36
2023-08-15T00:46:56.372Z,18.33
2023-08-15T00:52:03.518Z,18.28
2023-08-15T00:57:07.921Z,18.24
2023-08-15T01:02:12.727Z,18.21
2023-08-15T01:07:19.901Z,18.18
2023-08-15T01:12:31.240Z,18.25
2023-08-15T01:17:39.360Z,18.13
2023-08-15T01:22:46.332Z,18.14
2023-08-15T01:27:51.776Z,18.13
2023-08-15T01:33:08.939Z,18.09
2023-08-15T01:38:17.550Z,18.10
2023-08-15T01:43:23.681Z,18.10
2023-08-15T01:48:27.635Z,18.09
2023-08-15T01:53:31.928Z,18.09
2023-08-15T01:58:37.804Z,18.07
2023-08-15T02:03:41.781Z,18.06
2023-08-15T02:08:47.795Z,18.04
2023-08-15T02:13:55.344Z,18.02
2023-08-15T02:18:59.585Z,18.01
2023-08-15T02:24:04.204Z,17.98
2023-08-15T02:29:09.744Z,17.96
2023-08-15T02:34:13.635Z,17.95
2023-08-15T02:39:18.070Z,17.91
2023-08-15T02:44:23.864Z,17.87
2023-08-15T02:49:28.328Z,17.87
2023-08-15T02:54:34.170Z,17.82
2023-08-15T02:59:40.264Z,17.75
2023-08-15T03:04:44.362Z,17.73
2023-08-15T03:09:49.227Z,17.70
2023-08-15T03:14:54.493Z,17.72
2023-08-15T03:19:59.897Z,17.70
2023-08-15T03:25:04.690Z,17.68
2023-08-15T03:30:11.516Z,17.66
2023-08-15T03:35:16.767Z,17.65
2023-08-15T03:40:20.802Z,17.66
2023-08-15T03:45:27.263Z,17.67
2023-08-15T03:50:34.160Z,17.67
2023-08-15T03:55:38.287Z,17.68
2023-08-15T04:00:44.646Z,17.67
2023-08-15T04:05:49.353Z,17.69
2023-08-15T04:10:53.426Z,17.74
2023-08-15T04:15:58.961Z,17.78
2023-08-15T04:21:03.731Z,17.88
2023-08-15T04:26:07.817Z,17.96
2023-08-15T04:31:13.604Z,18.02
2023-08-15T04:36:17.603Z,18.15
2023-08-15T04:41:21.973Z,18.32
2023-08-15T04:46:27.269Z,18.47
2023-08-15T04:51:31.581Z,18.61
2023-08-15T04:56:35.757Z,18.78
2023-08-15T05:01:41.347Z,18.92
2023-08-15T05:06:45.672Z,19.08
2023-08-15T05:11:50.078Z,19.24
2023-08-15T05:16:55.480Z,19.42
2023-08-15T05:21:59.528Z,19.58
2023-08-15T05:27:04.032Z,19.77
2023-08-15T05:32:10.307Z,19.98
2023-08-15T05:37:14.551Z,20.17
2023-08-15T05:42:19.744Z,20.37
2023-08-15T05:47:25.301Z,20.59
2023-08-15T05:52:29.627Z,20.82
2023-08-15T05:57:33.676Z,21.04
2023-08-15T06:02:40.143Z,21.22
2023-08-15T06:07:44.827Z,21.47
2023-08-15T06:12:49.460Z,21.69
2023-08-15T06:17:54.822Z,21.95
2023-08-15T06:22:58.776Z,22.15
2023-08-15T06:28:02.869Z,22.38
2023-08-15T06:33:08.227Z,22.61
2023-08-15T06:38:12.349Z,22.84
2023-08-15T06:43:16.278Z,23.11
2023-08-15T06:48:22.108Z,23.34
2023-08-15T06:53:27.043Z,23.59
2023-08-15T06:58:31.353Z,23.78
2023-08-15T07:03:36.716Z,23.99
2023-08-15T07:08:40.804Z,24.20
2023-08-15T07:13:45.283Z,24.39
2023-08-15T07:23:59.625Z,24.81
2023-08-15T07:29:03.709Z,25.02
2023-08-15T07:34:09.766Z,25.18
2023-08-15T07:39:13.860Z,25.36
2023-08-15T07:44:18.036Z,25.53
2023-08-15T07:49:23.815Z,25.65
2023-08-15T07:54:27.812Z,25.85
2023-08-15T07:59:32.106Z,25.99
2023-08-15T08:04:37.942Z,26.15
2023-08-15T08:09:41.866Z,26.25
2023-08-15T08:14:56.788Z,26.45
2023-08-15T08:20:05.177Z,26.65
2023-08-15T08:25:17.501Z,26.72
2023-08-15T08:30:22.904Z,26.83
2023-08-15T08:35:28.267Z,26.98
2023-08-15T08:40:32.269Z,27.13
2023-08-15T08:45:37.247Z,27.33
2023-08-15T08:50:43.821Z,27.42
2023-08-15T08:55:49.203Z,27.50
2023-08-15T09:00:54.704Z,27.67
2023-08-15T09:06:00.553Z,27.81
2023-08-15T09:11:04.880Z,27.90
2023-08-15T09:16:09.658Z,28.01
2023-08-15T09:21:15.830Z,28.07
2023-08-15T09:26:20.422Z,28.30
2023-08-15T09:31:24.968Z,28.39
2023-08-15T09:36:33.426Z,28.53
2023-08-15T09:41:41.988Z,28.68
2023-08-15T09:46:46.778Z,28.84
2023-08-15T09:51:52.822Z,29.01
2023-08-15T09:56:56.740Z,29.01
2023-08-15T10:02:02.170Z,29.08
2023-08-15T10:07:07.665Z,29.24
2023-08-15T10:12:13.258Z,29.27
2023-08-15T10:17:18.615Z,29.32
2023-08-15T10:22:24.835Z,29.45
2023-08-15T10:27:29.442Z,29.50
2023-08-15T10:32:34.351Z,29.65
2023-08-15T10:37:42.525Z,29.78
2023-08-15T10:43:09.173Z,29.81
2023-08-15T10:48:13.348Z,29.99
2023-08-15T10:53:19.157Z,30.07
2023-08-15T10:58:24.236Z,30.16
2023-08-15T11:03:28.672Z,30.49
2023-08-15T11:08:34.076Z,30.58
2023-08-15T11:13:41.065Z,30.94
2023-08-15T11:18:45.846Z,30.96
2023-08-15T11:23:55.829Z,31.19
2023-08-15T11:29:00.943Z,31.42
2023-08-15T11:34:05.185Z,31.81
2023-08-15T11:39:15.048Z,31.99
2023-08-15T11:44:22.349Z,32.24
2023-08-15T11:49:26.506Z,32.36
2023-08-15T11:54:31.900Z,32.60
2023-08-15T11:59:37.088Z,32.94
2023-08-15T12:04:41.475Z,33.26
2023-08-15T12:09:47.139Z,33.08
2023-08-15T12:14:52.105Z,33.34
2023-08-15T12:19:56.770Z,33.23
2023-08-15T12:25:02.146Z,33.19
2023-08-15T12:30:12.765Z,33.47
2023-08-15T12:35:20.178Z,33.73
2023-08-15T12:40:31.117Z,33.71
2023-08-15T12:45:35.684Z,34.11
2023-08-15T12:50:40.820Z,34.29
2023-08-15T12:55:46.835Z,34.76
2023-08-15T13:00:52.047Z,34.85
2023-08-15T13:05:56.166Z,35.13
2023-08-15T13:11:01.425Z,35.42
2023-08-15T13:16:05.493Z,35.56
2023-08-15T13:21:09.656Z,35.67
2023-08-15T13:26:15.562Z,36.27
2023-08-15T13:31:19.651Z,35.93
2023-08-15T13:36:23.898Z,36.06
2023-08-15T13:41:29.606Z,36.36
2023-08-15T13:46:33.820Z,36.33
2023-08-15T13:51:37.752Z,36.33
2023-08-15T13:56:43.025Z,36.10
2023-08-15T14:01:47.282Z,36.33
2023-08-15T14:06:51.376Z,36.06
2023-08-15T14:11:56.769Z,35.96
2023-08-15T14:17:00.748Z,35.94
2023-08-15T14:22:04.724Z,35.92
2023-08-15T14:27:10.026Z,36.04
2023-08-15T14:32:14.100Z,35.74
2023-08-15T14:37:18.003Z,35.67
2023-08-15T14:42:23.592Z,35.60
2023-08-15T14:47:30.084Z,35.90
2023-08-15T14:52:35.207Z,35.71
2023-08-15T14:57:40.708Z,35.61
2023-08-15T15:02:44.682Z,36.00
2023-08-15T15:07:48.778Z,36.05
2023-08-15T15:12:54.425Z,35.97
2023-08-15T15:17:58.417Z,35.98
2023-08-15T15:23:03.321Z,35.88
2023-08-15T15:28:08.835Z,35.57
2023-08-15T15:33:12.903Z,35.29
2023-08-15T15:38:16.797Z,34.94
2023-08-15T15:43:23.505Z,34.80
2023-08-15T15:48:27.991Z,33.85
2023-08-15T15:53:32.109Z,32.84
2023-08-15T15:58:37.611Z,32.17
2023-08-15T16:03:43.042Z,31.48
2023-08-15T16:08:46.979Z,31.32
2023-08-15T16:13:53.710Z,31.04
2023-08-15T16:18:57.860Z,30.78
2023-08-15T16:24:02.088Z,30.59
2023-08-15T16:29:07.716Z,30.15
2023-08-15T16:34:11.765Z,29.85
2023-08-15T16:39:15.786Z,29.64
2023-08-15T16:44:21.439Z,29.40
2023-08-15T16:49:26.184Z,29.26
2023-08-15T16:54:30.179Z,28.99
2023-08-15T16:59:36.134Z,28.72
2023-08-15T17:04:40.173Z,28.50
2023-08-15T17:09:44.309Z,28.23
2023-08-15T17:14:49.597Z,27.93
2023-08-15T17:19:54.492Z,27.59
2023-08-15T17:24:58.819Z,27.26
2023-08-15T17:30:04.941Z,27.00
2023-08-15T17:35:09.527Z,26.72
2023-08-15T17:40:14.226Z,26.40
2023-08-15T17:45:19.691Z,26.09
2023-08-15T17:50:23.788Z,25.83
2023-08-15T17:55:28.118Z,25.51
2023-08-15T18:00:33.721Z,25.23
2023-08-15T18:05:37.804Z,24.94
2023-08-15T18:10:41.680Z,24.75
2023-08-15T18:15:47.573Z,24.52
2023-08-15T18:20:51.773Z,24.37
2023-08-15T18:25:56.284Z,24.15
2023-08-15T18:31:01.834Z,23.95
2023-08-15T18:36:06.321Z,23.85
2023-08-15T18:41:10.421Z,23.75
2023-08-15T18:46:15.748Z,23.56
2023-08-15T18:51:19.730Z,23.43
2023-08-15T18:56:23.883Z,23.29
2023-08-15T19:01:31.866Z,23.22
2023-08-15T19:06:35.818Z,23.08
2023-08-15T19:11:39.786Z,22.92
2023-08-15T19:16:45.512Z,22.78
2023-08-15T19:21:49.498Z,22.65
2023-08-15T19:26:55.882Z,22.56
2023-08-15T19:32:01.170Z,22.43
2023-08-15T19:37:05.174Z,22.35
2023-08-15T19:42:12.177Z,22.25
2023-08-15T19:47:17.455Z,22.22
2023-08-15T19:52:22.490Z,22.15
2023-08-15T19:57:26.545Z,22.11
2023-08-15T20:02:34.277Z,22.04
2023-08-15T20:07:38.705Z,21.99
2023-08-15T20:12:42.954Z,21.91
2023-08-15T20:17:48.431Z,21.92
2023-08-15T20:22:52.322Z,21.86
2023-08-15T20:27:57.794Z,21.75
2023-08-15T20:33:03.510Z,21.67
2023-08-15T20:38:08.143Z,21.55
2023-08-15T20:43:14.722Z,21.50
2023-08-15T20:48:21.081Z,21.37
2023-08-15T20:53:25.074Z,21.29
2023-08-15T20:58:30.768Z,21.18
2023-08-15T21:03:36.361Z,21.10
2023-08-15T21:08:40.427Z,21.03
2023-08-15T21:13:44.518Z,20.99
2023-08-15T21:18:49.943Z,20.90
2023-08-15T21:23:54.065Z,20.84
2023-08-15T21:28:58.923Z,20.76
2023-08-15T21:34:04.449Z,20.72
2023-08-15T21:39:08.378Z,20.58
2023-08-15T21:44:12.282Z,20.48
2023-08-15T21:49:17.719Z,20.39
2023-08-15T21:54:21.909Z,20.37
2023-08-15T21:59:26.027Z,20.32
2023-08-15T22:04:31.532Z,20.25
2023-08-15T22:09:35.705Z,20.22
2023-08-15T22:14:39.645Z,20.19
2023-08-15T22:19:45.139Z,20.16
2023-08-15T22:24:57.431Z,20.08
2023-08-15T22:30:10.443Z,20.08
2023-08-15T22:35:15.955Z,20.12
2023-08-15T22:40:20.118Z,20.10
2023-08-15T22:45:25.158Z,20.08
2023-08-15T22:50:30.520Z,20.11
2023-08-15T22:55:34.752Z,20.11
2023-08-15T23:00:38.927Z,20.01
2023-08-15T23:05:44.185Z,19.98
2023-08-15T23:10:54.199Z,19.97
2023-08-15T23:15:58.301Z,19.89
2023-08-15T23:21:03.561Z,19.85
2023-08-15T23:26:07.675Z,19.76
2023-08-15T23:31:12.989Z,19.68
2023-08-15T23:36:18.525Z,19.61
2023-08-15T23:41:22.738Z,19.53
2023-08-15T23:46:27.204Z,19.48
2023-08-15T23:51:32.716Z,19.45
2023-08-15T23:56:36.618Z,19.41
